Time;durP1;ratioP1;P1;durP2;ratioP2;P2;SDS_P1;SDS_P2;PMS_P1;PMS_P2;Temp;Humidity;BMP_temperature;BMP_pressure;BME280_temperature;BME280_humidity;BME280_pressure;Samples;Min_cycle;Max_cycle;Signal;HPM_P1;HPM_P2
2021/06/13 00:01:33;;;;;;;9.77;7.00;;;18.90;99.90;;;;;;6320660;28;20438;-81
2021/06/13 00:04:34;;;;;;;7.82;7.03;;;18.70;99.90;;;;;;6319338;28;20413;-78
2021/06/13 00:07:35;;;;;;;7.90;7.20;;;18.70;99.90;;;;;;6319464;28;20071;-80
2021/06/13 00:10:35;;;;;;;8.45;6.90;;;18.60;99.90;;;;;;6320176;28;20093;-77
2021/06/13 00:13:36;;;;;;;8.20;7.43;;;18.70;99.90;;;;;;6318708;28;20072;-80
2021/06/13 00:16:36;;;;;;;8.25;7.35;;;18.70;99.90;;;;;;6318725;28;20115;-80
2021/06/13 00:19:37;;;;;;;8.32;7.53;;;18.60;99.90;;;;;;6301749;28;20032;-78
2021/06/13 00:22:38;;;;;;;7.20;6.53;;;18.60;99.90;;;;;;6319493;28;20035;-77
2021/06/13 00:25:38;;;;;;;8.00;6.85;;;18.50;99.90;;;;;;6319637;28;20032;-78
2021/06/13 00:28:39;;;;;;;7.40;6.70;;;18.50;99.90;;;;;;6320275;28;20066;-79
2021/06/13 00:31:40;;;;;;;9.40;7.15;;;18.40;99.90;;;;;;6318543;28;20673;-78
2021/06/13 00:34:40;;;;;;;7.88;6.70;;;18.50;99.90;;;;;;6301546;28;20481;-79
2021/06/13 00:37:41;;;;;;;8.88;6.90;;;18.40;99.90;;;;;;6318132;28;20032;-79
2021/06/13 00:40:42;;;;;;;8.38;7.47;;;18.40;99.90;;;;;;6319686;28;20032;-78
2021/06/13 00:43:42;;;;;;;11.43;7.65;;;18.70;99.90;;;;;;6301541;28;20458;-77
2021/06/13 00:46:43;;;;;;;7.82;7.10;;;18.40;99.90;;;;;;6317865;28;20036;-79
2021/06/13 00:49:43;;;;;;;8.57;6.97;;;18.40;99.90;;;;;;6319544;28;20048;-78
2021/06/13 00:52:44;;;;;;;7.85;7.10;;;18.40;99.90;;;;;;6317825;28;20035;-78
2021/06/13 00:55:45;;;;;;;8.23;6.70;;;18.50;99.90;;;;;;6318193;28;20070;-81
2021/06/13 00:58:46;;;;;;;6.95;6.25;;;18.40;99.90;;;;;;6317793;28;20480;-79
2021/06/13 01:01:46;;;;;;;8.10;7.13;;;18.60;99.90;;;;;;6317543;28;20020;-77
2021/06/13 01:04:47;;;;;;;6.82;6.22;;;18.30;99.90;;;;;;6317559;28;20081;-78
2021/06/13 01:07:57;;;;;;;7.07;6.47;;;18.30;99.90;;;;;;6319018;28;20486;-77
2021/06/13 01:11:42;;;;;;;8.35;7.10;;;18.20;99.90;;;;;;6317628;28;20032;-79
2021/06/13 01:15:02;;;;;;;9.13;6.80;;;18.20;99.90;;;;;;6315780;28;20043;-77
2021/06/13 01:18:26;;;;;;;8.02;7.15;;;18.10;99.90;;;;;;6317699;28;20024;-79
2021/06/13 01:21:53;;;;;;;9.52;7.40;;;18.00;99.90;;;;;;6310469;28;20039;-80
2021/06/13 01:25:11;;;;;;;7.38;6.63;;;17.90;99.90;;;;;;6301128;28;20036;-78
2021/06/13 01:28:39;;;;;;;8.57;7.13;;;17.90;99.90;;;;;;6318393;28;20024;-78
2021/06/13 01:31:44;;;;;;;11.52;8.52;;;17.90;99.90;;;;;;6318686;28;20040;-76
2021/06/13 01:34:48;;;;;;;10.45;7.43;;;17.80;99.90;;;;;;6318521;28;20377;-77
2021/06/13 01:37:53;;;;;;;14.10;7.22;;;17.70;99.90;;;;;;6317261;28;20702;-78
2021/06/13 01:40:53;;;;;;;9.07;7.72;;;17.40;99.90;;;;;;6317097;28;20470;-78
2021/06/13 01:43:55;;;;;;;9.88;6.93;;;17.40;99.90;;;;;;6300138;28;20040;-79
2021/06/13 01:46:55;;;;;;;9.52;7.50;;;17.30;99.90;;;;;;6317031;28;20028;-77
2021/06/13 01:49:56;;;;;;;7.63;6.93;;;17.30;99.90;;;;;;6316405;28;20062;-79
2021/06/13 01:52:58;;;;;;;8.05;7.25;;;17.20;99.90;;;;;;6316326;28;20071;-78
2021/06/13 01:55:59;;;;;;;;;;;16.80;99.90;;;;;;6317418;28;20028;-78
2021/06/13 01:58:59;;;;;;;9.10;7.28;;;17.10;99.90;;;;;;6300068;28;19947;-77
2021/06/13 02:02:00;;;;;;;11.43;7.70;;;16.80;99.90;;;;;;6316694;28;20068;-78
2021/06/13 02:05:01;;;;;;;9.93;7.13;;;16.90;99.90;;;;;;6316763;28;20470;-80
2021/06/13 02:08:02;;;;;;;7.63;6.75;;;16.70;99.90;;;;;;6316807;28;20024;-78
2021/06/13 02:11:04;;;;;;;8.32;7.18;;;16.60;99.90;;;;;;6317607;28;20457;-80
2021/06/13 02:14:04;;;;;;;;;;;16.60;99.90;;;;;;6316755;28;20032;-80
2021/06/13 02:17:06;;;;;;;7.45;6.75;;;16.50;99.90;;;;;;6317428;28;20257;-77
2021/06/13 02:20:08;;;;;;;7.70;6.90;;;16.30;99.90;;;;;;6316236;28;20466;-79
2021/06/13 02:23:08;;;;;;;;;;;16.30;99.90;;;;;;6283448;28;20059;-79
2021/06/13 02:26:10;;;;;;;12.65;7.68;;;16.40;99.90;;;;;;6318020;28;19908;-81
2021/06/13 02:29:11;;;;;;;11.50;7.07;;;;;;;;;;6316052;28;20024;-79
2021/06/13 02:32:12;;;;;;;9.45;6.65;;;;;;;;;;6317499;28;20051;-77
2021/06/13 02:35:13;;;;;;;10.43;7.55;;;;;;;;;;6299230;28;20024;-77
2021/06/13 02:38:15;;;;;;;9.95;7.55;;;15.90;99.90;;;;;;6316098;28;20047;-81
2021/06/13 02:41:15;;;;;;;9.27;7.33;;;15.80;99.90;;;;;;6317325;28;20070;-77
2021/06/13 02:44:16;;;;;;;8.43;7.63;;;;;;;;;;6299297;28;20123;-78
2021/06/13 02:47:17;;;;;;;9.90;7.65;;;16.00;99.90;;;;;;6315957;28;20017;-78
2021/06/13 02:50:20;;;;;;;9.85;7.72;;;16.10;99.90;;;;;;6317333;28;20504;-78
2021/06/13 02:53:42;;;;;;;8.90;7.50;;;16.20;99.90;;;;;;6315939;28;20020;-77
2021/06/13 02:56:46;;;;;;;7.97;7.22;;;16.10;99.90;;;;;;6316367;28;20103;-79
2021/06/13 02:59:57;;;;;;;10.68;8.25;;;16.10;99.90;;;;;;6315964;28;20031;-79
2021/06/13 03:02:58;;;;;;;8.55;7.13;;;;;;;;;;6299166;28;20074;-77
2021/06/13 03:05:58;;;;;;;8.75;7.22;;;16.20;99.90;;;;;;6319635;28;20047;-77
2021/06/13 03:08:59;;;;;;;13.25;8.52;;;16.00;99.90;;;;;;6320761;28;20028;-79
2021/06/13 03:12:00;;;;;;;8.45;7.57;;;16.10;99.90;;;;;;6320453;28;20176;-77
2021/06/13 03:15:00;;;;;;;9.13;7.40;;;15.90;99.90;;;;;;6303575;28;20078;-76
2021/06/13 03:18:01;;;;;;;10.63;7.65;;;16.00;99.90;;;;;;6320260;28;20652;-77
2021/06/13 03:21:01;;;;;;;8.82;7.93;;;16.10;99.90;;;;;;6321617;28;20036;-78
2021/06/13 03:24:02;;;;;;;8.90;7.15;;;15.90;99.90;;;;;;6320648;28;20468;-80
2021/06/13 03:27:04;;;;;;;8.48;7.60;;;16.00;99.90;;;;;;6303313;28;20077;-79
2021/06/13 03:30:05;;;;;;;7.50;6.80;;;16.00;99.90;;;;;;6303320;28;20082;-77
2021/06/13 03:33:06;;;;;;;9.68;7.45;;;15.90;99.90;;;;;;6320196;28;20032;-76
2021/06/13 03:36:07;;;;;;;9.10;7.55;;;15.90;99.90;;;;;;6303419;28;20680;-80
2021/06/13 03:39:09;;;;;;;8.25;7.45;;;16.10;99.90;;;;;;6320008;28;20029;-80
2021/06/13 03:42:13;;;;;;;11.97;7.33;;;15.80;99.90;;;;;;6319742;28;20028;-79
2021/06/13 03:45:14;;;;;;;9.30;7.95;;;15.80;99.90;;;;;;6320133;28;20050;-80
2021/06/13 03:48:15;;;;;;;12.27;7.22;;;15.90;99.90;;;;;;6319400;28;20060;-78
2021/06/13 03:51:16;;;;;;;13.18;7.72;;;15.80;99.90;;;;;;6319716;28;20404;-80
2021/06/13 03:54:17;;;;;;;10.60;7.70;;;15.60;99.90;;;;;;6319523;28;20124;-78
2021/06/13 03:57:18;;;;;;;8.05;7.25;;;15.40;99.90;;;;;;6319595;28;20458;-77
2021/06/13 04:00:19;;;;;;;8.95;8.05;;;15.30;99.90;;;;;;6285781;28;20038;-78
2021/06/13 04:03:20;;;;;;;8.68;7.50;;;15.60;99.90;;;;;;6302817;28;20389;-77
2021/06/13 04:06:22;;;;;;;10.27;7.60;;;15.40;99.90;;;;;;6319510;28;20035;-81
2021/06/13 04:09:22;;;;;;;8.85;7.40;;;15.40;99.90;;;;;;6319552;28;20031;-77
2021/06/13 04:12:23;;;;;;;8.77;7.97;;;15.50;99.90;;;;;;6319099;28;20126;-79
2021/06/13 04:15:25;;;;;;;9.68;7.38;;;15.70;99.90;;;;;;6301984;28;20427;-77
2021/06/13 04:18:25;;;;;;;8.85;7.63;;;15.80;99.90;;;;;;6319038;28;20035;-77
2021/06/13 04:21:26;;;;;;;9.80;7.53;;;15.90;99.90;;;;;;6318964;28;20032;-76
2021/06/13 04:24:26;;;;;;;8.68;7.10;;;15.90;99.90;;;;;;6319103;28;20032;-77
2021/06/13 04:27:27;;;;;;;10.73;7.78;;;15.90;99.90;;;;;;6319109;28;20028;-80
2021/06/13 04:30:28;;;;;;;9.90;7.88;;;15.80;99.90;;;;;;6319104;28;20051;-77
2021/06/13 04:33:32;;;;;;;9.50;8.15;;;15.90;99.90;;;;;;6318724;28;20366;-77
2021/06/13 04:36:33;;;;;;;8.55;7.68;;;16.00;99.90;;;;;;6318759;28;20032;-80
2021/06/13 04:39:34;;;;;;;11.18;8.18;;;15.70;99.90;;;;;;6318835;28;20071;-77
2021/06/13 04:42:36;;;;;;;7.88;7.15;;;15.80;99.90;;;;;;6301732;28;20024;-76
2021/06/13 04:45:36;;;;;;;14.15;8.18;;;15.70;99.90;;;;;;6318414;28;20031;-77
2021/06/13 04:48:37;;;;;;;9.68;7.43;;;16.10;99.90;;;;;;6318281;28;20052;-79
2021/06/13 04:51:38;;;;;;;8.75;7.30;;;16.30;99.90;;;;;;6301519;28;20405;-79
2021/06/13 04:54:51;;;;;;;7.90;7.20;;;16.80;99.90;;;;;;6318133;28;20073;-77
2021/06/13 04:57:57;;;;;;;;;;;17.40;99.90;;;;;;6318850;28;20028;-81
2021/06/13 05:00:58;;;;;;;8.05;6.47;;;17.80;99.90;;;;;;6319531;28;20006;-77
2021/06/13 05:03:59;;;;;;;8.43;6.93;;;18.20;99.90;;;;;;6318164;28;20054;-77
2021/06/13 05:07:03;;;;;;;8.35;6.65;;;18.80;99.90;;;;;;6300950;28;20062;-77
2021/06/13 05:10:04;;;;;;;8.60;7.10;;;19.10;99.90;;;;;;6301521;28;20115;-76
2021/06/13 05:13:17;;;;;;;8.32;6.25;;;19.60;99.90;;;;;;6317757;28;20393;-77
2021/06/13 05:16:18;;;;;;;11.15;6.95;;;20.00;99.90;;;;;;6317702;28;20322;-80
2021/06/13 05:19:19;;;;;;;9.38;6.43;;;20.20;99.90;;;;;;6319160;28;20083;-78
2021/06/13 05:22:19;;;;;;;7.15;6.45;;;20.60;99.90;;;;;;6319072;28;20031;-77
2021/06/13 05:25:20;;;;;;;7.03;6.32;;;21.00;99.90;;;;;;6319135;28;20043;-80
2021/06/13 05:28:22;;;;;;;6.65;5.85;;;21.60;98.30;;;;;;6316568;28;20028;-80
2021/06/13 05:31:22;;;;;;;8.55;6.60;;;21.60;97.10;;;;;;6317201;28;20101;-77
2021/06/13 05:34:23;;;;;;;8.30;6.72;;;21.90;97.30;;;;;;6300482;28;20028;-78
2021/06/13 05:37:23;;;;;;;7.15;6.22;;;22.50;97.00;;;;;;6318724;28;20028;-80
2021/06/13 05:40:24;;;;;;;7.25;6.35;;;22.50;99.90;;;;;;6317278;28;20032;-81
2021/06/13 05:43:25;;;;;;;7.30;6.47;;;22.60;95.00;;;;;;6318748;28;20073;-78
2021/06/13 05:46:25;;;;;;;7.28;6.55;;;22.30;94.90;;;;;;6316973;28;20492;-79
2021/06/13 05:49:26;;;;;;;7.45;6.75;;;22.00;95.40;;;;;;6316662;28;20048;-77
2021/06/13 05:52:26;;;;;;;8.23;7.18;;;22.80;99.90;;;;;;6315281;28;20481;-81
2021/06/13 05:55:27;;;;;;;8.75;6.65;;;22.70;95.70;;;;;;6316816;28;20376;-80
2021/06/13 05:58:28;;;;;;;7.32;6.68;;;22.90;93.90;;;;;;6317203;28;20031;-80
2021/06/13 06:01:28;;;;;;;6.90;6.25;;;23.60;93.50;;;;;;6316392;28;20023;-78
2021/06/13 06:04:29;;;;;;;6.80;5.80;;;24.20;92.40;;;;;;6316988;28;20024;-78
2021/06/13 06:07:30;;;;;;;7.20;6.50;;;24.50;91.60;;;;;;6316720;28;20032;-82
2021/06/13 06:10:32;;;;;;;6.85;6.07;;;25.30;91.20;;;;;;6300279;28;20381;-77
2021/06/13 06:13:33;;;;;;;8.52;5.97;;;25.50;89.30;;;;;;6316984;28;20028;-78
2021/06/13 06:16:33;;;;;;;7.07;6.30;;;25.70;87.50;;;;;;6318314;28;20389;-78
2021/06/13 06:19:34;;;;;;;6.10;5.50;;;25.90;86.50;;;;;;6317048;28;20028;-78
2021/06/13 06:22:34;;;;;;;7.10;6.40;;;26.20;85.10;;;;;;6316467;28;20385;-78
2021/06/13 06:25:35;;;;;;;7.40;6.40;;;26.20;84.70;;;;;;6316717;28;20028;-78
2021/06/13 06:28:36;;;;;;;6.43;5.83;;;26.30;84.30;;;;;;6316719;28;20029;-80
2021/06/13 06:31:37;;;;;;;7.03;6.33;;;26.60;83.20;;;;;;6317900;28;20082;-77
2021/06/13 06:34:37;;;;;;;7.00;6.30;;;26.80;81.30;;;;;;6317717;28;20071;-77
2021/06/13 06:37:39;;;;;;;6.60;6.00;;;26.80;80.40;;;;;;6299716;28;20381;-79
2021/06/13 06:40:39;;;;;;;5.88;5.28;;;27.30;80.10;;;;;;6319773;28;20497;-79
2021/06/13 06:43:40;;;;;;;9.10;6.20;;;;;;;;;;6322963;28;20033;-78
2021/06/13 06:46:41;;;;;;;7.67;6.10;;;27.60;76.00;;;;;;6321130;28;20050;-79
2021/06/13 06:49:43;;;;;;;6.43;5.83;;;27.80;77.30;;;;;;6320100;28;20509;-82
2021/06/13 06:52:44;;;;;;;6.53;5.93;;;28.10;74.50;;;;;;6304362;28;20040;-79
2021/06/13 06:55:44;;;;;;;6.67;6.03;;;27.80;74.50;;;;;;6321243;28;20039;-80
2021/06/13 06:58:45;;;;;;;6.97;6.27;;;28.00;75.20;;;;;;6321090;28;20600;-78
2021/06/13 07:01:46;;;;;;;6.43;5.83;;;28.10;74.60;;;;;;6321087;28;20069;-78
2021/06/13 07:04:46;;;;;;;6.63;5.97;;;28.30;74.40;;;;;;6321217;28;20031;-80
2021/06/13 07:07:47;;;;;;;6.70;6.17;;;28.60;73.40;;;;;;6320823;28;20056;-77
2021/06/13 07:10:47;;;;;;;6.50;5.87;;;28.60;73.10;;;;;;6320988;28;20400;-77
2021/06/13 07:13:48;;;;;;;7.50;6.77;;;28.60;73.00;;;;;;6320418;28;20032;-79
2021/06/13 07:16:49;;;;;;;9.37;6.13;;;28.70;73.20;;;;;;6303464;28;20035;-79
2021/06/13 07:19:50;;;;;;;8.37;6.50;;;;;;;;;;6303330;28;20035;-79
2021/06/13 07:22:50;;;;;;;10.27;6.13;;;29.20;72.00;;;;;;6303638;28;20028;-79
2021/06/13 07:25:51;;;;;;;9.63;5.80;;;29.50;71.90;;;;;;6320331;28;20089;-79
2021/06/13 07:28:52;;;;;;;7.73;5.83;;;29.80;70.60;;;;;;6320191;28;20028;-84
2021/06/13 07:31:53;;;;;;;6.70;6.10;;;29.80;68.90;;;;;;6303512;28;20131;-81
2021/06/13 07:34:54;;;;;;;7.05;5.80;;;29.20;67.90;;;;;;6319984;28;20030;-79
2021/06/13 07:37:55;;;;;;;10.10;7.10;;;30.00;67.10;;;;;;6303552;28;20409;-80
2021/06/13 07:40:55;;;;;;;7.15;5.80;;;30.00;68.80;;;;;;6302357;28;20773;-80
2021/06/13 07:43:56;;;;;;;7.33;6.03;;;30.10;66.30;;;;;;6301402;28;20078;-80
2021/06/13 07:46:57;;;;;;;6.33;5.73;;;30.30;66.50;;;;;;6301135;28;20077;-81
2021/06/13 07:49:58;;;;;;;7.32;6.63;;;30.20;65.00;;;;;;6300760;28;20058;-81
2021/06/13 07:52:59;;;;;;;5.93;5.43;;;30.20;66.00;;;;;;6300464;28;20044;-82
2021/06/13 07:55:59;;;;;;;6.83;6.17;;;30.20;63.90;;;;;;6318840;28;20032;-80
2021/06/13 07:59:00;;;;;;;6.40;5.80;;;30.00;65.50;;;;;;6302899;28;20031;-80
2021/06/13 08:02:01;;;;;;;7.27;6.43;;;30.30;65.40;;;;;;6320081;28;20081;-83
2021/06/13 08:05:07;;;;;;;6.90;6.20;;;30.30;65.30;;;;;;6319843;28;20024;-81
2021/06/13 08:08:09;;;;;;;6.43;5.82;;;30.50;65.80;;;;;;6303253;28;20023;-83
2021/06/13 08:11:10;;;;;;;8.88;5.97;;;30.60;65.60;;;;;;6319523;28;20405;-81
2021/06/13 08:14:11;;;;;;;6.47;5.67;;;30.70;65.40;;;;;;6302309;28;20123;-81
2021/06/13 08:17:11;;;;;;;7.60;6.40;;;31.10;70.90;;;;;;6318972;28;20046;-81
2021/06/13 08:20:13;;;;;;;6.13;5.53;;;30.70;68.90;;;;;;6319009;28;20034;-83
2021/06/13 08:23:13;;;;;;;9.85;6.28;;;31.30;68.60;;;;;;6285309;28;20024;-79
2021/06/13 08:26:14;;;;;;;7.73;6.33;;;31.00;69.70;;;;;;6319440;28;20518;-82
2021/06/13 08:29:15;;;;;;;6.80;6.20;;;31.40;68.80;;;;;;6318828;28;20030;-82
2021/06/13 08:32:15;;;;;;;6.27;5.43;;;31.10;69.30;;;;;;6318886;28;20043;-79
2021/06/13 08:35:16;;;;;;;6.50;5.80;;;31.20;68.80;;;;;;6318446;28;20736;-80
2021/06/13 08:38:18;;;;;;;7.07;6.38;;;31.30;61.60;;;;;;6318850;28;20024;-83
2021/06/13 08:41:19;;;;;;;6.65;5.60;;;31.50;59.80;;;;;;6318631;28;20472;-83
2021/06/13 08:44:20;;;;;;;6.57;5.97;;;31.60;59.90;;;;;;6317320;28;20077;-81
2021/06/13 08:47:22;;;;;;;7.40;5.85;;;31.60;57.70;;;;;;6319012;28;20083;-85
2021/06/13 08:50:23;;;;;;;6.55;5.70;;;31.60;58.90;;;;;;6317783;28;20052;-80
2021/06/13 08:53:24;;;;;;;8.90;5.70;;;31.60;59.30;;;;;;6301252;28;20746;-81
2021/06/13 08:56:24;;;;;;;6.07;5.47;;;31.50;58.20;;;;;;6300902;28;20126;-81
2021/06/13 08:59:25;;;;;;;5.67;5.17;;;31.70;59.60;;;;;;6317543;28;20542;-81
2021/06/13 09:02:26;;;;;;;5.73;5.23;;;32.40;56.60;;;;;;6317430;28;20320;-81
2021/06/13 09:05:26;;;;;;;6.07;5.47;;;33.20;55.90;;;;;;6318654;28;20028;-79
2021/06/13 09:08:40;;;;;;;5.90;5.40;;;33.50;57.00;;;;;;6300944;28;21534;-80
2021/06/13 09:11:42;;;;;;;6.00;5.40;;;33.20;55.20;;;;;;6318091;28;20394;-81
2021/06/13 09:14:44;;;;;;;5.85;5.15;;;33.60;55.60;;;;;;6318026;28;20040;-80
2021/06/13 09:17:45;;;;;;;12.85;5.32;;;33.50;54.20;;;;;;6317927;28;20412;-81
2021/06/13 09:20:45;;;;;;;6.35;5.43;;;33.40;54.70;;;;;;6318083;28;20051;-80
2021/06/13 09:23:46;;;;;;;5.60;5.10;;;33.20;56.00;;;;;;6300091;28;20028;-82
2021/06/13 09:26:47;;;;;;;5.70;5.20;;;33.30;55.90;;;;;;6316069;28;20028;-81
2021/06/13 09:29:51;;;;;;;5.50;4.90;;;33.10;53.40;;;;;;6317280;28;20082;-82
2021/06/13 09:33:07;;;;;;;8.95;5.32;;;33.10;55.50;;;;;;6300618;28;20118;-81
2021/06/13 09:36:08;;;;;;;6.35;5.70;;;34.20;54.90;;;;;;6318701;28;20024;-81
2021/06/13 09:39:12;;;;;;;8.23;5.38;;;32.90;54.50;;;;;;6317429;28;20480;-81
2021/06/13 09:42:13;;;;;;;8.73;6.05;;;33.30;55.90;;;;;;6316748;28;20050;-80
2021/06/13 09:45:17;;;;;;;6.70;5.30;;;33.40;53.90;;;;;;6284004;28;20025;-79
2021/06/13 09:48:18;;;;;;;5.95;5.07;;;33.30;53.40;;;;;;6316339;28;20398;-82
2021/06/13 09:51:26;;;;;;;6.63;5.20;;;33.30;53.70;;;;;;6317340;28;20032;-81
2021/06/13 09:54:27;;;;;;;6.55;5.07;;;33.10;53.30;;;;;;6299963;28;20392;-81
2021/06/13 09:57:28;;;;;;;;;;;33.10;51.80;;;;;;6300964;28;20056;-79
2021/06/13 10:00:29;;;;;;;6.87;5.00;;;33.30;52.60;;;;;;6317055;28;19914;-79
2021/06/13 10:03:34;;;;;;;;;;;33.20;52.70;;;;;;6317149;28;20117;-82
2021/06/13 10:06:36;;;;;;;6.35;4.97;;;32.90;54.70;;;;;;6300635;28;19908;-80
2021/06/13 10:09:39;;;;;;;5.93;5.15;;;32.70;53.80;;;;;;6316737;28;20470;-83
2021/06/13 10:12:53;;;;;;;5.65;5.07;;;33.20;53.80;;;;;;6299957;28;20085;-81
2021/06/13 10:15:53;;;;;;;7.65;5.40;;;33.50;54.80;;;;;;6315623;28;20023;-81
2021/06/13 10:18:59;;;;;;;5.20;4.47;;;33.40;49.40;;;;;;6318128;28;20032;-83
2021/06/13 10:22:02;;;;;;;6.72;5.50;;;33.60;51.30;;;;;;6299305;28;20119;-85
2021/06/13 10:25:03;;;;;;;5.57;5.07;;;33.50;51.00;;;;;;6316648;28;20031;-82
2021/06/13 10:28:04;;;;;;;7.50;4.75;;;33.30;52.50;;;;;;6299648;28;20113;-81
2021/06/13 10:31:04;;;;;;;7.07;5.18;;;33.10;52.80;;;;;;6316654;28;20074;-81
2021/06/13 10:34:05;;;;;;;5.80;5.00;;;32.90;50.70;;;;;;6299720;28;20423;-81
2021/06/13 10:37:08;;;;;;;6.63;5.00;;;33.00;52.40;;;;;;6299644;28;20040;-81
2021/06/13 10:40:09;;;;;;;10.98;5.13;;;32.60;54.70;;;;;;6298478;28;20039;-79
2021/06/13 10:43:20;;;;;;;;;;;32.00;56.20;;;;;;6300298;28;20393;-79
2021/06/13 10:46:24;;;;;;;6.80;5.03;;;31.70;56.30;;;;;;6316366;28;20313;-78
2021/06/13 10:49:33;;;;;;;8.18;4.95;;;31.90;66.10;;;;;;6316083;28;20051;-77
2021/06/13 10:52:33;;;;;;;9.57;6.10;;;31.70;65.20;;;;;;6316524;28;20113;-77
2021/06/13 10:55:51;;;;;;;8.18;5.85;;;31.60;70.70;;;;;;6315988;28;20054;-78
2021/06/13 10:58:59;;;;;;;5.70;5.20;;;31.50;67.50;;;;;;6299775;28;20036;-77
2021/06/13 11:02:14;;;;;;;6.10;5.00;;;31.30;59.70;;;;;;6316315;28;20028;-78
2021/06/13 11:05:15;;;;;;;7.85;5.57;;;31.60;59.40;;;;;;6316525;28;20028;-81
2021/06/13 11:08:17;;;;;;;6.22;5.63;;;31.40;59.70;;;;;;6299088;28;20070;-77
2021/06/13 11:11:36;;;;;;;5.93;5.43;;;31.40;58.80;;;;;;6316357;28;20032;-77
2021/06/13 11:14:37;;;;;;;6.60;5.25;;;31.30;59.10;;;;;;6318147;28;20039;-77
2021/06/13 11:18:00;;;;;;;6.07;5.40;;;31.50;59.50;;;;;;6315625;28;20032;-79
2021/06/13 11:21:05;;;;;;;7.50;5.32;;;31.50;56.90;;;;;;6317348;28;20266;-79
2021/06/13 11:24:06;;;;;;;6.25;5.30;;;31.20;58.00;;;;;;6316038;28;20024;-79
2021/06/13 11:27:07;;;;;;;6.30;5.70;;;30.90;62.10;;;;;;6318411;28;20075;-79
2021/06/13 11:30:09;;;;;;;9.93;6.85;;;31.00;59.30;;;;;;6321723;28;20273;-79
2021/06/13 11:33:10;;;;;;;6.53;5.50;;;30.80;58.90;;;;;;6320913;28;20123;-79
2021/06/13 11:36:24;;;;;;;6.97;5.82;;;30.70;62.10;;;;;;6303032;28;20088;-78
2021/06/13 11:39:25;;;;;;;5.35;4.85;;;30.60;59.20;;;;;;6320345;28;20043;-79
2021/06/13 11:42:26;;;;;;;7.13;5.72;;;30.60;61.60;;;;;;6320143;28;20119;-81
2021/06/13 11:45:29;;;;;;;7.03;5.43;;;30.40;61.10;;;;;;6320016;28;20366;-79
2021/06/13 11:48:34;;;;;;;6.82;5.20;;;30.60;61.90;;;;;;6319802;28;20375;-79
2021/06/13 11:51:52;;;;;;;6.50;5.40;;;30.70;61.70;;;;;;6319594;28;20039;-79
2021/06/13 11:54:59;;;;;;;8.82;5.70;;;30.70;64.80;;;;;;6321100;28;20034;-78
2021/06/13 11:58:00;;;;;;;7.95;5.38;;;30.40;63.10;;;;;;6302913;28;20095;-79
2021/06/13 12:01:01;;;;;;;8.07;5.83;;;30.10;62.80;;;;;;6319574;28;20044;-81
2021/06/13 12:04:07;;;;;;;6.35;5.47;;;30.00;65.60;;;;;;6302394;28;20123;-79
2021/06/13 12:07:12;;;;;;;7.50;4.60;;;30.00;64.10;;;;;;6319546;28;20036;-79
2021/06/13 12:10:32;;;;;;;7.72;4.95;;;29.70;63.30;;;;;;6303090;28;20024;-79
2021/06/13 12:13:32;;;;;;;6.65;4.72;;;29.80;63.30;;;;;;6317773;28;20453;-79
2021/06/13 12:16:33;;;;;;;6.73;4.93;;;29.70;65.80;;;;;;6318340;28;20024;-78
2021/06/13 12:19:41;;;;;;;5.33;4.83;;;29.40;66.50;;;;;;6315377;28;20035;-78
2021/06/13 12:29:10;;;;;;;5.07;4.45;;;29.10;61.60;;;;;;6318811;28;20024;-81
2021/06/13 12:32:15;;;;;;;7.90;5.30;;;28.90;90.40;;;;;;6301041;28;20101;-78
2021/06/13 12:35:16;;;;;;;7.53;5.10;;;28.90;64.80;;;;;;6316907;28;20028;-79
2021/06/13 12:38:18;;;;;;;6.93;5.00;;;28.70;76.20;;;;;;6316831;28;20028;-82
2021/06/13 12:41:20;;;;;;;8.13;4.60;;;29.00;76.90;;;;;;6317525;28;20064;-83
2021/06/13 12:44:21;;;;;;;5.57;4.95;;;28.90;74.80;;;;;;6301175;28;20098;-82
2021/06/13 12:47:21;;;;;;;5.40;4.32;;;28.90;74.40;;;;;;6317674;28;20059;-83
2021/06/13 12:50:23;;;;;;;7.83;4.67;;;28.40;76.20;;;;;;6300366;28;20044;-84
2021/06/13 12:53:36;;;;;;;7.80;4.60;;;28.90;75.20;;;;;;6319488;28;20024;-77
2021/06/13 12:56:36;;;;;;;5.20;4.32;;;28.70;74.10;;;;;;6300926;28;20484;-78
2021/06/13 12:59:37;;;;;;;7.37;4.57;;;28.20;76.20;;;;;;6318324;28;20042;-81
2021/06/13 13:02:38;;;;;;;9.98;4.72;;;28.20;76.30;;;;;;6317141;28;20458;-77
2021/06/13 13:05:40;;;;;;;7.60;4.23;;;28.40;77.90;;;;;;6300888;28;20035;-77
2021/06/13 13:08:45;;;;;;;4.80;4.30;;;28.60;66.80;;;;;;6317950;28;20027;-78
2021/06/13 13:11:51;;;;;;;5.80;4.70;;;28.40;65.50;;;;;;6317852;28;20038;-77
2021/06/13 13:15:04;;;;;;;7.45;4.65;;;28.50;66.40;;;;;;6318925;28;20485;-78
2021/06/13 13:18:15;;;;;;;6.47;4.75;;;28.60;66.80;;;;;;6317667;28;20419;-78
2021/06/13 13:21:38;;;;;;;9.73;4.75;;;28.60;62.80;;;;;;6299563;28;20032;-78
2021/06/13 13:24:39;;;;;;;5.20;4.65;;;28.70;78.70;;;;;;6318615;28;20027;-77
2021/06/13 13:27:39;;;;;;;7.47;4.33;;;28.70;64.10;;;;;;6317472;28;20468;-79
2021/06/13 13:30:40;;;;;;;6.40;4.47;;;28.90;78.40;;;;;;6316904;28;20434;-82
2021/06/13 13:33:42;;;;;;;8.53;5.07;;;28.90;76.50;;;;;;6315568;28;20024;-80
2021/06/13 13:36:48;;;;;;;6.20;4.28;;;28.60;66.00;;;;;;6300423;28;20385;-80
2021/06/13 13:40:06;;;;;;;11.43;4.75;;;28.80;62.30;;;;;;6300539;28;20040;-80
2021/06/13 13:43:14;;;;;;;6.43;4.28;;;28.90;76.80;;;;;;6316486;28;20043;-79
2021/06/13 13:46:35;;;;;;;6.30;4.57;;;28.90;74.30;;;;;;6317895;28;20461;-74
2021/06/13 13:49:37;;;;;;;7.90;4.20;;;28.70;64.60;;;;;;6315802;28;20109;-81
2021/06/13 13:52:37;;;;;;;5.60;4.13;;;28.60;77.90;;;;;;6317002;28;20032;-83
2021/06/13 13:55:49;;;;;;;6.47;4.00;;;28.90;65.50;;;;;;6317297;28;20043;-79
2021/06/13 13:58:50;;;;;;;6.38;4.38;;;28.70;63.80;;;;;;6318678;28;20027;-77
2021/06/13 14:01:51;;;;;;;6.15;4.32;;;28.90;66.10;;;;;;6316377;28;20036;-77
2021/06/13 14:04:52;;;;;;;7.72;4.03;;;28.80;64.40;;;;;;6317907;28;20055;-81
2021/06/13 14:07:52;;;;;;;5.53;4.07;;;28.50;65.60;;;;;;6316582;28;20036;-77
2021/06/13 14:10:53;;;;;;;6.70;4.40;;;28.30;67.40;;;;;;6317863;28;20163;-76
2021/06/13 14:13:54;;;;;;;8.03;4.20;;;28.30;68.40;;;;;;6317047;28;20032;-79
2021/06/13 14:16:54;;;;;;;5.57;3.70;;;28.30;68.10;;;;;;6317758;28;20032;-79
2021/06/13 14:19:55;;;;;;;5.03;4.27;;;27.00;65.90;;;;;;6315909;28;20032;-85
2021/06/13 14:22:55;;;;;;;7.13;4.10;;;27.80;67.90;;;;;;6316521;28;20115;-84
2021/06/13 14:25:56;;;;;;;5.70;4.10;;;28.10;70.20;;;;;;6299461;28;20074;-83
2021/06/13 14:28:57;;;;;;;8.77;4.70;;;28.20;67.90;;;;;;6299869;28;20058;-81
2021/06/13 14:31:57;;;;;;;4.93;4.23;;;28.10;67.60;;;;;;6315448;28;20032;-75
2021/06/13 14:34:58;;;;;;;7.77;4.07;;;28.20;69.50;;;;;;6317898;28;20084;-77
2021/06/13 14:37:58;;;;;;;5.40;4.03;;;28.10;68.90;;;;;;6317570;28;20035;-77
2021/06/13 14:40:59;;;;;;;5.73;4.67;;;27.90;67.30;;;;;;6317952;28;20093;-77
2021/06/13 14:44:00;;;;;;;6.30;4.50;;;27.90;69.00;;;;;;6315883;28;20035;-77
2021/06/13 14:47:00;;;;;;;7.00;4.13;;;28.00;66.60;;;;;;6318143;28;20042;-76
2021/06/13 14:50:01;;;;;;;6.30;4.30;;;27.90;67.90;;;;;;6317230;28;20164;-80
2021/06/13 14:53:02;;;;;;;6.93;4.40;;;26.70;69.50;;;;;;6316032;28;20470;-76
2021/06/13 14:56:03;;;;;;;7.22;4.20;;;27.50;68.40;;;;;;6316192;28;20089;-76
2021/06/13 14:59:04;;;;;;;4.73;3.90;;;27.80;68.40;;;;;;6317517;28;20028;-80
2021/06/13 15:02:05;;;;;;;6.30;4.10;;;27.60;69.30;;;;;;6319939;28;20024;-79
2021/06/13 15:05:06;;;;;;;9.60;4.47;;;27.60;69.60;;;;;;6321469;28;20075;-77
2021/06/13 15:08:07;;;;;;;;;;;27.50;69.60;;;;;;6300670;28;20060;-75
2021/06/13 15:11:08;;;;;;;8.15;4.20;;;27.50;67.50;;;;;;6314528;28;20280;-75
2021/06/13 15:14:09;;;;;;;5.50;3.88;;;27.10;66.80;;;;;;6319985;28;20028;-77
2021/06/13 15:17:09;;;;;;;4.40;4.00;;;27.20;68.00;;;;;;6320862;28;20505;-75
2021/06/13 15:20:11;;;;;;;6.03;3.43;;;27.10;67.50;;;;;;6321891;28;20385;-76
2021/06/13 15:23:12;;;;;;;6.05;3.80;;;27.10;66.40;;;;;;6321793;28;20063;-77
2021/06/13 15:26:13;;;;;;;4.88;4.10;;;27.00;66.10;;;;;;6321786;28;20043;-80
2021/06/13 15:29:14;;;;;;;7.83;4.10;;;27.00;68.40;;;;;;6319310;28;20040;-76
2021/06/13 15:32:15;;;;;;;5.67;3.73;;;26.90;68.00;;;;;;6321317;28;20040;-75
2021/06/13 15:35:18;;;;;;;7.88;4.10;;;26.90;67.70;;;;;;6321631;28;20016;-76
2021/06/13 15:38:18;;;;;;;8.95;4.10;;;27.10;69.10;;;;;;6321403;28;20089;-85
2021/06/13 15:41:19;;;;;;;4.37;3.80;;;27.00;67.90;;;;;;6302817;28;20028;-84
2021/06/13 15:44:20;;;;;;;6.43;4.17;;;27.00;68.50;;;;;;6319813;28;20484;-81
2021/06/13 15:47:21;;;;;;;7.93;3.80;;;26.90;66.00;;;;;;6302359;28;20063;-80
2021/06/13 15:50:23;;;;;;;4.38;3.75;;;26.80;68.60;;;;;;6285037;28;20054;-87
2021/06/13 15:53:25;;;;;;;6.82;3.80;;;;;;;;;;6303331;28;20101;-87
2021/06/13 15:56:27;;;;;;;4.88;3.40;;;26.70;63.90;;;;;;6320090;28;20028;-88
2021/06/13 16:04:22;;;;;;;6.20;3.88;;;29.70;67.80;;;;;;6321709;28;20552;-92
2021/06/13 16:07:57;;;;;;;;;;;;;;;;;;;;;
2021/06/13 16:11:20;;;;;;;5.97;3.67;;;24.80;66.60;;;;;;6294128;28;20162;-91